createdAt,value
2018-09-04T00:00:28.941Z,60.10
2018-09-04T00:02:57.245Z,65.53
2018-09-04T00:05:25.781Z,79.57
2018-09-04T00:07:54.148Z,75.17
2018-09-04T00:10:22.792Z,78.63
2018-09-04T00:12:51.108Z,76.83
2018-09-04T00:15:19.433Z,79.00
2018-09-04T00:17:47.706Z,81.33
2018-09-04T00:20:16.028Z,80.83
2018-09-04T00:22:44.316Z,84.53
2018-09-04T00:25:12.748Z,100.43
2018-09-04T00:27:41.070Z,88.53
2018-09-04T00:30:09.409Z,84.87
2018-09-04T00:32:37.739Z,97.13
2018-09-04T00:35:06.272Z,82.87
2018-09-04T00:37:35.777Z,80.17
2018-09-04T00:40:04.140Z,91.63
2018-09-04T00:42:32.433Z,113.03
2018-09-04T00:45:00.753Z,104.33
2018-09-04T00:47:29.102Z,100.20
2018-09-04T00:49:57.448Z,95.93
2018-09-04T00:52:26.370Z,98.27
2018-09-04T00:54:54.757Z,97.00
2018-09-04T00:57:23.155Z,91.83
2018-09-04T00:59:51.488Z,97.10
2018-09-04T01:02:19.768Z,93.53
2018-09-04T01:04:48.873Z,149.30
2018-09-04T01:07:17.815Z,92.40
2018-09-04T01:09:46.094Z,91.73
2018-09-04T01:12:14.740Z,90.90
2018-09-04T01:14:43.036Z,96.07
2018-09-04T01:17:11.348Z,96.33
2018-09-04T01:19:39.983Z,102.43
2018-09-04T01:22:08.300Z,93.70
2018-09-04T01:24:36.752Z,98.17
2018-09-04T01:27:05.129Z,94.93
2018-09-04T01:29:33.700Z,100.33
2018-09-04T01:32:01.984Z,101.53
2018-09-04T01:34:30.691Z,97.20
2018-09-04T01:36:59.200Z,99.13
2018-09-04T01:39:27.532Z,94.83
2018-09-04T01:41:55.837Z,108.40
2018-09-04T01:44:24.127Z,103.27
2018-09-04T01:46:52.408Z,100.50
2018-09-04T01:49:20.705Z,107.80
2018-09-04T01:51:49.008Z,113.20
2018-09-04T01:54:17.303Z,106.47
2018-09-04T01:56:45.612Z,108.27
2018-09-04T01:59:13.896Z,101.50
2018-09-04T02:01:42.199Z,98.53
2018-09-04T02:04:10.515Z,102.90
2018-09-04T02:06:39.564Z,92.23
2018-09-04T02:09:08.312Z,99.83
2018-09-04T02:11:36.685Z,102.27
2018-09-04T02:14:05.269Z,108.43
2018-09-04T02:16:33.829Z,109.07
2018-09-04T02:19:02.144Z,113.43
2018-09-04T02:21:30.578Z,107.63
2018-09-04T02:23:58.860Z,113.70
2018-09-04T02:26:27.604Z,115.67
2018-09-04T02:28:55.897Z,115.53
2018-09-04T02:31:24.192Z,100.97
2018-09-04T02:33:52.513Z,105.33
2018-09-04T02:36:20.804Z,97.33
2018-09-04T02:38:49.108Z,104.40
2018-09-04T02:41:17.457Z,102.87
2018-09-04T02:43:45.744Z,97.77
2018-09-04T02:46:14.028Z,103.00
2018-09-04T02:48:42.332Z,99.73
2018-09-04T02:51:10.633Z,104.63
2018-09-04T02:53:39.248Z,112.53
2018-09-04T02:56:07.559Z,108.50
2018-09-04T02:58:37.050Z,100.67
2018-09-04T03:01:05.596Z,102.63
2018-09-04T03:03:34.040Z,88.20
2018-09-04T03:06:02.330Z,97.80
2018-09-04T03:08:30.983Z,102.07
2018-09-04T03:10:59.298Z,101.33
2018-09-04T03:13:27.901Z,90.33
2018-09-04T03:15:56.189Z,93.93
2018-09-04T03:18:24.800Z,104.83
2018-09-04T03:20:53.080Z,101.40
2018-09-04T03:23:21.365Z,93.57
2018-09-04T03:25:49.736Z,90.17
2018-09-04T03:28:18.045Z,92.30
2018-09-04T03:30:46.348Z,96.37
2018-09-04T03:33:14.672Z,101.17
2018-09-04T03:35:42.964Z,93.63
2018-09-04T03:38:11.245Z,100.07
2018-09-04T03:40:39.660Z,96.13
2018-09-04T03:43:08.054Z,93.03
2018-09-04T03:45:36.474Z,108.93
2018-09-04T03:48:04.992Z,102.73
2018-09-04T03:50:33.390Z,95.17
2018-09-04T03:53:01.680Z,98.90
2018-09-04T03:55:30.135Z,94.33
2018-09-04T03:57:58.428Z,89.60
2018-09-04T04:00:26.713Z,95.30
2018-09-04T04:02:55.032Z,95.80
2018-09-04T04:05:23.427Z,102.80
2018-09-04T04:07:51.712Z,96.40
2018-09-04T04:10:20.052Z,93.77
2018-09-04T04:12:48.441Z,92.87
2018-09-04T04:15:16.728Z,97.17
2018-09-04T04:17:45.140Z,99.00
2018-09-04T04:20:13.472Z,94.13
2018-09-04T04:22:42.414Z,90.30
2018-09-04T04:25:10.725Z,88.80
2018-09-04T04:27:39.028Z,83.97
2018-09-04T04:30:07.389Z,87.53
2018-09-04T04:32:36.041Z,99.40
2018-09-04T04:35:04.688Z,96.60
2018-09-04T04:37:33.199Z,92.20
2018-09-04T04:40:01.668Z,92.20
2018-09-04T04:42:30.021Z,93.77
2018-09-04T04:44:58.312Z,95.20
2018-09-04T04:47:32.160Z,98.63
2018-09-04T04:50:00.454Z,94.73
2018-09-04T04:52:28.766Z,99.47
2018-09-04T04:54:57.480Z,89.00
2018-09-04T04:57:25.790Z,94.17
2018-09-04T04:59:54.384Z,87.50
2018-09-04T05:02:22.750Z,95.63
2018-09-04T05:04:51.081Z,95.10
2018-09-04T05:07:19.380Z,90.43
2018-09-04T05:09:47.711Z,80.30
2018-09-04T05:12:15.996Z,83.07
2018-09-04T05:14:50.029Z,96.73
2018-09-04T05:17:18.372Z,93.00
2018-09-04T05:19:46.700Z,88.70
2018-09-04T05:22:15.037Z,96.03
2018-09-04T05:24:43.381Z,81.73
2018-09-04T05:27:11.900Z,83.47
2018-09-04T05:29:40.316Z,83.30
2018-09-04T05:32:27.029Z,80.50
2018-09-04T05:34:55.352Z,90.20
2018-09-04T05:37:23.733Z,83.27
2018-09-04T05:39:52.036Z,91.73
2018-09-04T05:42:27.081Z,101.00
2018-09-04T05:44:55.377Z,91.73
2018-09-04T05:47:23.794Z,88.57
2018-09-04T05:49:52.524Z,97.67
2018-09-04T05:52:20.860Z,89.10
2018-09-04T05:54:49.140Z,84.87
2018-09-04T05:57:17.469Z,91.93
2018-09-04T05:59:45.780Z,85.67
2018-09-04T06:02:14.092Z,90.03
2018-09-04T06:04:42.589Z,82.87
2018-09-04T06:07:10.869Z,85.47
2018-09-04T06:09:39.253Z,84.80
2018-09-04T06:12:07.677Z,92.47
2018-09-04T06:14:36.092Z,89.00
2018-09-04T06:17:04.506Z,89.37
2018-09-04T06:19:33.049Z,91.00
2018-09-04T06:22:01.426Z,96.50
2018-09-04T06:24:29.720Z,93.33
2018-09-04T06:26:58.077Z,87.10
2018-09-04T06:29:26.453Z,87.37
2018-09-04T06:31:54.700Z,88.30
2018-09-04T06:34:23.058Z,87.60
2018-09-04T06:36:51.357Z,91.73
2018-09-04T06:39:19.669Z,78.50
2018-09-04T06:41:48.000Z,83.10
2018-09-04T06:44:16.313Z,75.87
2018-09-04T06:46:44.765Z,75.20
2018-09-04T06:49:13.181Z,84.17
2018-09-04T06:51:41.580Z,82.03
2018-09-04T06:54:09.866Z,82.83
2018-09-04T06:56:38.272Z,82.23
2018-09-04T06:59:06.560Z,73.07
2018-09-04T07:01:35.096Z,74.23
2018-09-04T07:04:04.285Z,75.63
2018-09-04T07:06:32.575Z,70.57
2018-09-04T07:09:00.852Z,76.77
2018-09-04T07:11:29.203Z,76.83
2018-09-04T07:13:57.492Z,73.13
2018-09-04T07:16:25.776Z,88.57
2018-09-04T07:18:54.094Z,59.70
2018-09-04T07:21:22.515Z,72.63
2018-09-04T07:23:50.791Z,57.60
2018-09-04T07:26:19.160Z,56.33
2018-09-04T07:28:47.449Z,60.23
2018-09-04T07:31:16.025Z,56.50
2018-09-04T07:33:44.395Z,61.23
2018-09-04T07:36:12.756Z,56.00
2018-09-04T07:38:41.386Z,57.30
2018-09-04T07:41:09.724Z,60.93
2018-09-04T07:43:38.101Z,52.30
2018-09-04T07:46:06.430Z,54.50
2018-09-04T07:48:34.906Z,53.23
2018-09-04T07:51:03.194Z,55.17
2018-09-04T07:53:31.513Z,49.73
2018-09-04T07:55:59.908Z,49.90
2018-09-04T07:58:28.211Z,51.90
2018-09-04T08:00:56.622Z,54.33
2018-09-04T08:03:25.073Z,53.33
2018-09-04T08:05:53.376Z,51.47
2018-09-04T08:08:21.663Z,48.80
2018-09-04T08:10:49.983Z,49.50
2018-09-04T08:13:18.313Z,48.33
2018-09-04T08:15:46.685Z,52.93
2018-09-04T08:18:15.000Z,52.07
2018-09-04T08:20:43.885Z,50.88
2018-09-04T08:23:12.169Z,47.43
2018-09-04T08:25:40.593Z,45.98
2018-09-04T08:28:08.872Z,47.17
2018-09-04T08:30:37.197Z,45.33
2018-09-04T08:33:05.589Z,48.30
2018-09-04T08:35:33.857Z,46.63
2018-09-04T08:38:02.178Z,45.83
2018-09-04T08:40:32.328Z,47.70
2018-09-04T08:43:00.789Z,48.95
2018-09-04T08:45:29.672Z,47.88
2018-09-04T08:48:01.250Z,50.17
2018-09-04T08:50:31.000Z,46.28
2018-09-04T08:52:59.263Z,62.80
2018-09-04T08:55:27.591Z,44.47
2018-09-04T08:57:55.896Z,45.13
2018-09-04T09:00:24.184Z,46.07
2018-09-04T09:02:52.509Z,45.57
2018-09-04T09:05:20.813Z,47.93
2018-09-04T09:07:49.115Z,47.57
2018-09-04T09:10:17.467Z,43.45
2018-09-04T09:12:45.774Z,43.63
2018-09-04T09:15:14.065Z,45.50
2018-09-04T09:17:42.660Z,40.95
2018-09-04T09:20:10.973Z,45.85
2018-09-04T09:22:39.340Z,45.43
2018-09-04T09:25:07.797Z,43.98
2018-09-04T09:27:36.204Z,49.58
2018-09-04T09:30:04.545Z,43.25
2018-09-04T09:32:33.189Z,42.25
2018-09-04T09:35:01.482Z,45.08
2018-09-04T09:37:29.804Z,46.40
2018-09-04T09:39:58.129Z,41.25
2018-09-04T09:42:26.437Z,44.23
2018-09-04T09:44:54.736Z,41.23
2018-09-04T09:47:23.072Z,39.67
2018-09-04T09:49:51.396Z,35.50
2018-09-04T09:52:19.684Z,35.27
2018-09-04T09:54:48.012Z,35.90
2018-09-04T09:57:16.312Z,36.15
2018-09-04T09:59:44.649Z,32.48
2018-09-04T10:02:19.522Z,35.35
2018-09-04T10:04:48.030Z,37.53
2018-09-04T10:07:16.312Z,38.88
2018-09-04T10:09:44.676Z,37.83
2018-09-04T10:12:12.978Z,39.17
2018-09-04T10:14:41.333Z,36.33
2018-09-04T10:17:10.072Z,35.90
2018-09-04T10:19:38.386Z,35.45
2018-09-04T10:22:06.693Z,32.15
2018-09-04T10:24:34.998Z,31.90
2018-09-04T10:27:03.295Z,36.40
2018-09-04T10:29:31.614Z,37.50
2018-09-04T10:31:59.933Z,36.70
2018-09-04T10:34:28.225Z,30.62
2018-09-04T10:36:56.541Z,29.87
2018-09-04T10:39:30.410Z,30.68
2018-09-04T10:41:58.712Z,30.05
2018-09-04T10:44:31.293Z,29.72
2018-09-04T10:46:59.609Z,29.52
2018-09-04T10:49:27.909Z,28.40
2018-09-04T10:51:56.674Z,31.12
2018-09-04T10:54:24.984Z,28.23
2018-09-04T10:56:53.308Z,27.37
2018-09-04T10:59:21.653Z,26.23
2018-09-04T11:01:50.004Z,26.20
2018-09-04T11:04:18.291Z,26.33
2018-09-04T11:06:46.864Z,24.35
2018-09-04T11:09:15.198Z,21.00
2018-09-04T11:11:43.512Z,21.68
2018-09-04T11:14:11.833Z,21.27
2018-09-04T11:16:40.151Z,23.07
2018-09-04T11:19:08.468Z,22.75
2018-09-04T11:21:36.783Z,25.48
2018-09-04T11:24:05.068Z,22.73
2018-09-04T11:26:33.396Z,24.02
2018-09-04T11:29:03.807Z,21.75
2018-09-04T11:31:32.112Z,23.60
2018-09-04T11:34:00.392Z,23.25
2018-09-04T11:36:28.740Z,22.82
2018-09-04T11:38:57.029Z,21.70
2018-09-04T11:41:25.821Z,18.23
2018-09-04T11:43:54.240Z,19.23
2018-09-04T11:46:22.524Z,18.50
2018-09-04T11:48:50.814Z,19.27
2018-09-04T11:51:19.153Z,18.90
2018-09-04T11:53:47.476Z,18.27
2018-09-04T11:56:19.260Z,96.02
2018-09-04T11:58:47.674Z,25.25
2018-09-04T12:01:17.484Z,18.73
2018-09-04T12:03:45.874Z,21.48
2018-09-04T12:06:14.188Z,20.82
2018-09-04T12:08:42.499Z,20.30
2018-09-04T12:11:10.856Z,19.50
2018-09-04T12:13:39.173Z,20.27
2018-09-04T12:16:07.470Z,19.45
2018-09-04T12:18:35.781Z,22.30
2018-09-04T12:21:07.504Z,19.25
2018-09-04T12:23:35.664Z,26.50
2018-09-04T12:26:05.341Z,20.32
2018-09-04T12:28:33.732Z,19.35
2018-09-04T12:31:02.300Z,19.70
2018-09-04T12:33:30.905Z,19.17
2018-09-04T12:35:59.224Z,16.35
2018-09-04T12:38:31.179Z,17.00
2018-09-04T12:41:03.712Z,27.65
2018-09-04T12:43:32.318Z,17.45
2018-09-04T12:46:00.697Z,18.87
2018-09-04T12:48:30.053Z,17.87
2018-09-04T12:50:59.605Z,17.60
2018-09-04T12:53:28.663Z,17.42
2018-09-04T12:55:57.052Z,20.25
2018-09-04T12:58:25.358Z,19.75
2018-09-04T13:00:54.412Z,20.20
2018-09-04T13:03:23.917Z,27.80
2018-09-04T13:05:52.288Z,31.15
2018-09-04T13:08:21.920Z,21.50
2018-09-04T13:10:50.287Z,19.50
2018-09-04T13:13:18.596Z,17.23
2018-09-04T13:15:48.955Z,18.85
2018-09-04T13:18:17.268Z,19.20
2018-09-04T13:20:45.612Z,19.40
2018-09-04T13:23:13.904Z,18.90
2018-09-04T13:25:42.235Z,22.55
2018-09-04T13:28:10.572Z,22.48
2018-09-04T13:30:39.360Z,21.52
2018-09-04T13:33:08.032Z,21.52
2018-09-04T13:35:36.901Z,19.92
2018-09-04T13:38:05.348Z,20.35
2018-09-04T13:40:33.653Z,23.57
2018-09-04T13:43:01.985Z,22.22
2018-09-04T13:45:30.377Z,23.77
2018-09-04T13:48:00.718Z,21.65
2018-09-04T13:50:29.697Z,21.17
2018-09-04T13:52:58.012Z,20.65
2018-09-04T13:55:26.309Z,21.87
2018-09-04T13:57:54.607Z,21.80
2018-09-04T14:00:23.584Z,20.23
2018-09-04T14:02:51.912Z,22.00
2018-09-04T14:05:20.234Z,21.87
2018-09-04T14:07:48.544Z,21.10
2018-09-04T14:10:16.857Z,21.95
2018-09-04T14:12:45.188Z,23.50
2018-09-04T14:15:13.484Z,23.02
2018-09-04T14:17:42.078Z,22.45
2018-09-04T14:20:10.411Z,21.95
2018-09-04T14:22:38.761Z,21.25
2018-09-04T14:25:07.044Z,21.37
2018-09-04T14:27:41.708Z,22.42
2018-09-04T14:30:17.041Z,21.48
2018-09-04T14:32:38.359Z,19.17
2018-09-04T14:35:07.185Z,19.67
2018-09-04T14:37:35.468Z,17.02
2018-09-04T14:40:03.770Z,18.37
2018-09-04T14:42:32.083Z,18.48
2018-09-04T14:45:00.389Z,18.52
2018-09-04T14:47:28.669Z,20.17
2018-09-04T14:49:56.988Z,19.12
2018-09-04T14:52:25.287Z,20.08
2018-09-04T14:54:53.804Z,19.85
2018-09-04T14:57:22.108Z,17.82
2018-09-04T14:59:50.592Z,16.85
2018-09-04T15:02:18.825Z,18.25
2018-09-04T15:04:47.188Z,19.05
2018-09-04T15:07:15.488Z,16.05
2018-09-04T15:09:43.796Z,16.97
2018-09-04T15:12:12.284Z,16.85
2018-09-04T15:14:40.537Z,14.85
2018-09-04T15:17:08.841Z,15.18
2018-09-04T15:19:37.201Z,17.02
2018-09-04T15:22:05.489Z,15.60
2018-09-04T15:24:33.804Z,15.28
2018-09-04T15:27:02.123Z,15.38
2018-09-04T15:29:30.417Z,14.35
2018-09-04T15:31:58.732Z,14.58
2018-09-04T15:34:27.064Z,15.25
2018-09-04T15:36:55.439Z,13.28
2018-09-04T15:39:23.730Z,12.95
2018-09-04T15:41:52.077Z,14.65
2018-09-04T15:44:20.377Z,13.28
2018-09-04T15:46:48.720Z,12.30
2018-09-04T15:49:22.318Z,13.60
2018-09-04T15:51:50.637Z,14.15
2018-09-04T15:54:18.943Z,12.65
2018-09-04T15:56:47.353Z,13.40
2018-09-04T15:59:15.632Z,12.43
2018-09-04T16:01:43.940Z,13.55
2018-09-04T16:04:12.276Z,14.47
2018-09-04T16:06:40.574Z,13.38
2018-09-04T16:09:08.924Z,12.43
2018-09-04T16:11:37.240Z,13.83
2018-09-04T16:14:05.553Z,18.35
2018-09-04T16:16:33.852Z,12.98
2018-09-04T16:19:02.175Z,11.88
2018-09-04T16:21:30.500Z,13.68
2018-09-04T16:23:58.791Z,12.45
2018-09-04T16:26:27.145Z,11.10
2018-09-04T16:28:55.450Z,11.12
2018-09-04T16:31:23.739Z,11.63
2018-09-04T16:33:52.149Z,10.48
2018-09-04T16:36:20.440Z,10.60
2018-09-04T16:38:48.832Z,13.32
2018-09-04T16:41:17.165Z,11.05
2018-09-04T16:43:45.469Z,12.78
2018-09-04T16:46:13.825Z,13.35
2018-09-04T16:48:42.162Z,11.80
2018-09-04T16:51:10.552Z,12.70
2018-09-04T16:53:38.833Z,13.43
2018-09-04T16:56:07.145Z,11.50
2018-09-04T16:58:35.468Z,12.43
2018-09-04T17:01:03.781Z,12.23
2018-09-04T17:03:32.134Z,12.28
2018-09-04T17:06:00.438Z,13.58
2018-09-04T17:08:28.729Z,13.08
2018-09-04T17:10:57.208Z,13.35
2018-09-04T17:13:25.520Z,14.07
2018-09-04T17:15:53.860Z,13.60
2018-09-04T17:18:22.195Z,14.00
2018-09-04T17:20:50.485Z,12.28
2018-09-04T17:23:18.796Z,26.90
2018-09-04T17:25:47.248Z,12.63
2018-09-04T17:28:15.606Z,14.03
2018-09-04T17:30:43.932Z,13.10
2018-09-04T17:33:12.316Z,14.47
2018-09-04T17:35:40.649Z,13.90
2018-09-04T17:38:09.029Z,14.40
2018-09-04T17:40:37.336Z,12.83
2018-09-04T17:43:05.892Z,12.70
2018-09-04T17:45:34.157Z,13.50
2018-09-04T17:48:02.591Z,12.87
2018-09-04T17:50:30.852Z,13.87
2018-09-04T17:52:59.264Z,13.87
2018-09-04T17:55:27.601Z,14.27
2018-09-04T17:57:56.317Z,96.77
2018-09-04T18:00:24.597Z,25.83
2018-09-04T18:02:53.232Z,16.23
2018-09-04T18:05:21.602Z,16.90
2018-09-04T18:07:49.902Z,15.07
2018-09-04T18:10:18.231Z,17.50
2018-09-04T18:12:46.572Z,18.63
2018-09-04T18:15:14.873Z,14.50
2018-09-04T18:17:43.233Z,16.33
2018-09-04T18:20:11.552Z,14.83
2018-09-04T18:22:39.988Z,14.60
2018-09-04T18:25:08.354Z,15.80
2018-09-04T18:27:36.636Z,16.37
2018-09-04T18:30:05.097Z,15.07
2018-09-04T18:32:33.468Z,16.00
2018-09-04T18:35:01.887Z,16.00
2018-09-04T18:37:30.173Z,15.33
2018-09-04T18:39:58.637Z,16.40
2018-09-04T18:42:26.960Z,16.50
2018-09-04T18:44:55.629Z,15.83
2018-09-04T18:47:24.116Z,17.37
2018-09-04T18:49:52.412Z,16.03
2018-09-04T18:52:20.705Z,17.37
2018-09-04T18:54:49.088Z,17.60
2018-09-04T18:57:17.372Z,16.30
2018-09-04T18:59:45.751Z,18.10
2018-09-04T19:02:14.444Z,17.73
2018-09-04T19:04:42.790Z,18.40
2018-09-04T19:07:11.105Z,18.07
2018-09-04T19:09:39.418Z,19.10
2018-09-04T19:12:07.816Z,34.63
2018-09-04T19:14:36.177Z,25.03
2018-09-04T19:17:04.840Z,19.93
2018-09-04T19:19:33.164Z,18.43
2018-09-04T19:22:01.569Z,18.30
2018-09-04T19:24:29.952Z,17.03
2018-09-04T19:26:58.581Z,18.77
2018-09-04T19:29:26.970Z,19.03
2018-09-04T19:31:55.721Z,20.10
2018-09-04T19:34:24.031Z,18.80
2018-09-04T19:36:52.525Z,19.20
2018-09-04T19:39:20.840Z,22.43
2018-09-04T19:41:49.117Z,20.57
2018-09-04T19:44:17.453Z,20.53
2018-09-04T19:46:45.784Z,19.43
2018-09-04T19:49:14.297Z,19.80
2018-09-04T19:51:42.605Z,26.30
2018-09-04T19:54:10.975Z,28.13
2018-09-04T19:56:39.284Z,20.40
2018-09-04T19:59:07.733Z,20.70
2018-09-04T20:01:36.108Z,19.43
2018-09-04T20:04:04.461Z,22.27
2018-09-04T20:06:32.785Z,23.93
2018-09-04T20:09:01.384Z,20.40
2018-09-04T20:11:29.977Z,20.90
2018-09-04T20:13:58.353Z,19.80
2018-09-04T20:16:26.680Z,26.13
2018-09-04T20:18:55.006Z,28.17
2018-09-04T20:21:23.378Z,25.40
2018-09-04T20:23:51.682Z,27.80
2018-09-04T20:26:20.088Z,35.57
2018-09-04T20:28:48.375Z,25.27
2018-09-04T20:31:16.729Z,25.03
2018-09-04T20:33:45.017Z,24.20
2018-09-04T20:36:13.340Z,22.27
2018-09-04T20:38:41.689Z,23.57
2018-09-04T20:41:10.177Z,28.40
2018-09-04T20:43:38.525Z,22.17
2018-09-04T20:46:06.961Z,25.77
2018-09-04T20:48:35.281Z,21.97
2018-09-04T20:51:03.754Z,27.50
2018-09-04T20:53:32.090Z,21.10
2018-09-04T20:56:00.499Z,23.33
2018-09-04T20:58:40.364Z,23.07
2018-09-04T21:01:20.208Z,21.47
2018-09-04T21:04:00.049Z,22.10
2018-09-04T21:06:39.900Z,20.03
2018-09-04T21:09:16.156Z,18.90
2018-09-04T21:11:44.476Z,21.83
2018-09-04T21:14:12.797Z,22.73
2018-09-04T21:16:41.133Z,21.73
2018-09-04T21:19:09.677Z,20.43
2018-09-04T21:21:37.981Z,19.50
2018-09-04T21:24:06.456Z,20.47
2018-09-04T21:26:34.768Z,20.10
2018-09-04T21:29:03.275Z,21.37
2018-09-04T21:31:31.788Z,21.80
2018-09-04T21:34:00.195Z,22.50
2018-09-04T21:36:28.526Z,20.57
2018-09-04T21:38:56.869Z,20.50
2018-09-04T21:41:25.151Z,20.90
2018-09-04T21:43:53.449Z,21.00
2018-09-04T21:46:21.744Z,20.13
2018-09-04T21:48:50.033Z,23.73
2018-09-04T21:51:18.329Z,21.97
2018-09-04T21:53:46.657Z,24.97
2018-09-04T21:56:14.940Z,21.37
2018-09-04T21:58:43.249Z,26.07
2018-09-04T22:01:11.804Z,22.30
2018-09-04T22:03:40.153Z,23.07
2018-09-04T22:06:08.523Z,20.90
2018-09-04T22:08:37.217Z,21.67
2018-09-04T22:11:05.702Z,22.30
2018-09-04T22:13:33.980Z,22.37
2018-09-04T22:16:02.336Z,22.40
2018-09-04T22:18:30.652Z,20.73
2018-09-04T22:20:58.996Z,22.33
2018-09-04T22:23:27.720Z,25.30
2018-09-04T22:25:55.997Z,22.17
2018-09-04T22:28:24.329Z,21.87
2018-09-04T22:30:52.627Z,22.77
2018-09-04T22:33:20.917Z,21.87
2018-09-04T22:35:49.243Z,22.83
2018-09-04T22:38:17.577Z,22.07
2018-09-04T22:40:45.860Z,22.57
2018-09-04T22:43:14.169Z,21.57
2018-09-04T22:45:42.477Z,21.83
2018-09-04T22:48:10.945Z,21.60
2018-09-04T22:50:44.556Z,20.87
2018-09-04T22:53:13.038Z,23.37
2018-09-04T22:55:41.313Z,20.83
2018-09-04T22:58:09.728Z,22.20
2018-09-04T23:00:37.924Z,21.73
2018-09-04T23:03:06.437Z,20.03
2018-09-04T23:05:34.793Z,24.23
2018-09-04T23:08:03.408Z,24.60
2018-09-04T23:10:31.696Z,26.30
2018-09-04T23:13:00.016Z,20.50
2018-09-04T23:15:28.354Z,21.13
2018-09-04T23:17:56.648Z,19.30
2018-09-04T23:20:24.978Z,19.93
2018-09-04T23:22:53.258Z,19.80
2018-09-04T23:25:21.540Z,19.40
2018-09-04T23:27:49.849Z,21.03
2018-09-04T23:30:18.170Z,19.80
2018-09-04T23:32:46.752Z,18.70
2018-09-04T23:35:15.060Z,18.90
2018-09-04T23:37:43.366Z,18.50
2018-09-04T23:40:11.670Z,21.23
2018-09-04T23:42:40.024Z,19.97
2018-09-04T23:45:08.592Z,21.43
2018-09-04T23:47:36.880Z,22.57
2018-09-04T23:50:06.712Z,22.60
2018-09-04T23:52:35.065Z,23.47
2018-09-04T23:55:03.672Z,21.00
2018-09-04T23:57:31.988Z,22.23
